sensor_id;sensor_type;location;lat;lon;timestamp;temperature;humidity
48328;DHT22;34136;51.022;7.082;2023-02-01T00:01:41;6.80;14.40
48328;DHT22;34136;51.022;7.082;2023-02-01T00:04:27;6.80;14.30
48328;DHT22;34136;51.022;7.082;2023-02-01T00:07:14;6.80;14.00
48328;DHT22;34136;51.022;7.082;2023-02-01T00:13:49;6.80;13.70
48328;DHT22;34136;51.022;7.082;2023-02-01T00:16:36;6.80;13.60
48328;DHT22;34136;51.022;7.082;2023-02-01T00:19:22;6.80;13.40
48328;DHT22;34136;51.022;7.082;2023-02-01T00:22:08;6.80;13.50
48328;DHT22;34136;51.022;7.082;2023-02-01T00:24:54;6.80;13.80
48328;DHT22;34136;51.022;7.082;2023-02-01T00:27:40;6.80;14.70
48328;DHT22;34136;51.022;7.082;2023-02-01T00:30:26;6.80;15.30
48328;DHT22;34136;51.022;7.082;2023-02-01T00:33:12;6.80;15.90
48328;DHT22;34136;51.022;7.082;2023-02-01T00:36:00;6.80;16.40
48328;DHT22;34136;51.022;7.082;2023-02-01T00:38:48;6.80;16.50
48328;DHT22;34136;51.022;7.082;2023-02-01T00:41:34;6.80;16.60
48328;DHT22;34136;51.022;7.082;2023-02-01T00:44:20;6.80;16.30
48328;DHT22;34136;51.022;7.082;2023-02-01T00:47:06;6.80;16.30
48328;DHT22;34136;51.022;7.082;2023-02-01T00:49:52;6.80;16.10
48328;DHT22;34136;51.022;7.082;2023-02-01T00:52:38;6.80;16.30
48328;DHT22;34136;51.022;7.082;2023-02-01T00:55:25;6.80;16.20
48328;DHT22;34136;51.022;7.082;2023-02-01T00:58:11;6.70;15.60
48328;DHT22;34136;51.022;7.082;2023-02-01T01:01:08;6.70;15.10
48328;DHT22;34136;51.022;7.082;2023-02-01T01:03:57;6.80;15.20
48328;DHT22;34136;51.022;7.082;2023-02-01T01:06:43;6.70;14.60
48328;DHT22;34136;51.022;7.082;2023-02-01T01:09:29;6.70;14.40
48328;DHT22;34136;51.022;7.082;2023-02-01T01:12:15;6.70;13.40
48328;DHT22;34136;51.022;7.082;2023-02-01T01:15:02;6.70;12.40
48328;DHT22;34136;51.022;7.082;2023-02-01T01:17:48;6.60;12.10
48328;DHT22;34136;51.022;7.082;2023-02-01T01:20:36;6.60;11.40
48328;DHT22;34136;51.022;7.082;2023-02-01T01:23:22;6.60;10.50
48328;DHT22;34136;51.022;7.082;2023-02-01T01:26:13;6.60;9.40
48328;DHT22;34136;51.022;7.082;2023-02-01T01:29:00;6.60;8.20
48328;DHT22;34136;51.022;7.082;2023-02-01T01:31:46;6.50;7.20
48328;DHT22;34136;51.022;7.082;2023-02-01T01:34:32;6.50;7.30
48328;DHT22;34136;51.022;7.082;2023-02-01T01:37:18;6.50;6.60
48328;DHT22;34136;51.022;7.082;2023-02-01T01:40:06;6.50;6.80
48328;DHT22;34136;51.022;7.082;2023-02-01T01:42:53;6.50;4.50
48328;DHT22;34136;51.022;7.082;2023-02-01T01:45:40;6.40;5.40
48328;DHT22;34136;51.022;7.082;2023-02-01T01:48:29;6.50;4.10
48328;DHT22;34136;51.022;7.082;2023-02-01T01:51:18;6.40;3.50
48328;DHT22;34136;51.022;7.082;2023-02-01T01:57:03;6.30;4.70
48328;DHT22;34136;51.022;7.082;2023-02-01T01:59:58;6.30;4.10
48328;DHT22;34136;51.022;7.082;2023-02-01T02:02:48;6.30;3.30
48328;DHT22;34136;51.022;7.082;2023-02-01T02:05:38;6.30;3.40
48328;DHT22;34136;51.022;7.082;2023-02-01T02:08:25;6.30;3.30
48328;DHT22;34136;51.022;7.082;2023-02-01T02:11:16;6.30;2.90
48328;DHT22;34136;51.022;7.082;2023-02-01T02:14:05;6.30;2.90
48328;DHT22;34136;51.022;7.082;2023-02-01T02:17:02;6.30;2.20
48328;DHT22;34136;51.022;7.082;2023-02-01T02:26:38;6.30;2.90
48328;DHT22;34136;51.022;7.082;2023-02-01T02:29:46;6.30;1.80
48328;DHT22;34136;51.022;7.082;2023-02-01T02:33:12;6.30;3.20
48328;DHT22;34136;51.022;7.082;2023-02-01T02:36:36;6.30;3.00
48328;DHT22;34136;51.022;7.082;2023-02-01T02:39:31;6.30;2.70
48328;DHT22;34136;51.022;7.082;2023-02-01T02:42:46;6.30;3.40
48328;DHT22;34136;51.022;7.082;2023-02-01T02:45:42;6.30;3.30
48328;DHT22;34136;51.022;7.082;2023-02-01T02:48:43;6.20;2.90
48328;DHT22;34136;51.022;7.082;2023-02-01T02:51:38;6.30;3.60
48328;DHT22;34136;51.022;7.082;2023-02-01T02:54:31;6.30;2.90
48328;DHT22;34136;51.022;7.082;2023-02-01T02:57:29;6.30;3.10
48328;DHT22;34136;51.022;7.082;2023-02-01T03:00:22;6.30;2.30
48328;DHT22;34136;51.022;7.082;2023-02-01T03:03:10;6.20;3.00
48328;DHT22;34136;51.022;7.082;2023-02-01T03:05:56;6.20;2.70
48328;DHT22;34136;51.022;7.082;2023-02-01T03:08:43;6.20;3.20
48328;DHT22;34136;51.022;7.082;2023-02-01T03:11:31;6.20;2.70
48328;DHT22;34136;51.022;7.082;2023-02-01T03:14:21;6.30;2.90
48328;DHT22;34136;51.022;7.082;2023-02-01T03:17:14;6.30;3.10
48328;DHT22;34136;51.022;7.082;2023-02-01T03:20:02;6.30;3.60
48328;DHT22;34136;51.022;7.082;2023-02-01T03:22:51;6.30;3.90
48328;DHT22;34136;51.022;7.082;2023-02-01T03:25:39;6.30;4.50
48328;DHT22;34136;51.022;7.082;2023-02-01T03:28:28;6.30;5.00
48328;DHT22;34136;51.022;7.082;2023-02-01T03:31:17;6.30;5.60
48328;DHT22;34136;51.022;7.082;2023-02-01T03:34:03;6.20;6.10
48328;DHT22;34136;51.022;7.082;2023-02-01T03:37:08;6.30;6.40
48328;DHT22;34136;51.022;7.082;2023-02-01T03:40:02;6.30;6.90
48328;DHT22;34136;51.022;7.082;2023-02-01T03:42:54;6.30;7.60
48328;DHT22;34136;51.022;7.082;2023-02-01T03:45:45;6.30;7.90
48328;DHT22;34136;51.022;7.082;2023-02-01T03:48:32;6.20;8.00
48328;DHT22;34136;51.022;7.082;2023-02-01T03:51:20;6.30;8.20
48328;DHT22;34136;51.022;7.082;2023-02-01T03:54:11;6.30;8.00
48328;DHT22;34136;51.022;7.082;2023-02-01T03:57:37;6.30;8.00
48328;DHT22;34136;51.022;7.082;2023-02-01T04:00:26;6.30;7.70
48328;DHT22;34136;51.022;7.082;2023-02-01T04:03:15;6.30;8.30
48328;DHT22;34136;51.022;7.082;2023-02-01T04:06:01;6.30;8.10
48328;DHT22;34136;51.022;7.082;2023-02-01T04:08:48;6.20;7.70
48328;DHT22;34136;51.022;7.082;2023-02-01T04:11:35;6.30;7.50
48328;DHT22;34136;51.022;7.082;2023-02-01T04:14:21;6.40;7.50
48328;DHT22;34136;51.022;7.082;2023-02-01T04:17:07;6.30;7.70
48328;DHT22;34136;51.022;7.082;2023-02-01T04:19:53;6.30;7.20
48328;DHT22;34136;51.022;7.082;2023-02-01T04:22:40;6.30;7.20
48328;DHT22;34136;51.022;7.082;2023-02-01T04:25:26;6.30;7.10
48328;DHT22;34136;51.022;7.082;2023-02-01T04:28:12;6.40;6.80
48328;DHT22;34136;51.022;7.082;2023-02-01T04:30:59;6.30;6.40
48328;DHT22;34136;51.022;7.082;2023-02-01T04:33:45;6.30;5.90
48328;DHT22;34136;51.022;7.082;2023-02-01T04:36:31;6.30;5.70
48328;DHT22;34136;51.022;7.082;2023-02-01T04:39:17;6.30;5.80
48328;DHT22;34136;51.022;7.082;2023-02-01T04:42:03;6.30;6.00
48328;DHT22;34136;51.022;7.082;2023-02-01T04:44:50;6.30;5.40
48328;DHT22;34136;51.022;7.082;2023-02-01T04:47:36;6.30;5.30
48328;DHT22;34136;51.022;7.082;2023-02-01T04:50:22;6.10;5.00
48328;DHT22;34136;51.022;7.082;2023-02-01T04:53:09;6.20;5.00
48328;DHT22;34136;51.022;7.082;2023-02-01T04:55:55;6.10;5.00
48328;DHT22;34136;51.022;7.082;2023-02-01T04:58:41;6.10;5.20
48328;DHT22;34136;51.022;7.082;2023-02-01T05:01:28;6.00;4.60
48328;DHT22;34136;51.022;7.082;2023-02-01T05:04:14;6.00;4.50
48328;DHT22;34136;51.022;7.082;2023-02-01T05:07:02;6.00;4.40
48328;DHT22;34136;51.022;7.082;2023-02-01T05:09:48;6.00;4.30
48328;DHT22;34136;51.022;7.082;2023-02-01T05:12:34;6.00;4.10
48328;DHT22;34136;51.022;7.082;2023-02-01T05:15:21;6.00;4.30
48328;DHT22;34136;51.022;7.082;2023-02-01T05:18:07;6.00;4.20
48328;DHT22;34136;51.022;7.082;2023-02-01T05:20:54;6.00;4.40
48328;DHT22;34136;51.022;7.082;2023-02-01T05:23:40;6.00;4.30
48328;DHT22;34136;51.022;7.082;2023-02-01T05:26:26;6.00;4.50
48328;DHT22;34136;51.022;7.082;2023-02-01T05:29:13;6.00;4.80
48328;DHT22;34136;51.022;7.082;2023-02-01T05:31:59;6.00;4.50
48328;DHT22;34136;51.022;7.082;2023-02-01T05:34:46;5.90;4.80
48328;DHT22;34136;51.022;7.082;2023-02-01T05:37:32;5.90;4.40
48328;DHT22;34136;51.022;7.082;2023-02-01T05:40:18;5.90;4.40
48328;DHT22;34136;51.022;7.082;2023-02-01T05:43:05;5.80;4.90
48328;DHT22;34136;51.022;7.082;2023-02-01T05:45:54;5.80;4.70
48328;DHT22;34136;51.022;7.082;2023-02-01T05:48:41;5.80;4.90
48328;DHT22;34136;51.022;7.082;2023-02-01T05:51:28;5.80;4.80
48328;DHT22;34136;51.022;7.082;2023-02-01T05:54:14;5.80;4.70
48328;DHT22;34136;51.022;7.082;2023-02-01T05:57:00;5.80;4.40
48328;DHT22;34136;51.022;7.082;2023-02-01T05:59:46;5.80;5.00
48328;DHT22;34136;51.022;7.082;2023-02-01T06:02:33;5.80;4.70
48328;DHT22;34136;51.022;7.082;2023-02-01T06:05:21;5.80;4.80
48328;DHT22;34136;51.022;7.082;2023-02-01T06:08:07;5.80;4.50
48328;DHT22;34136;51.022;7.082;2023-02-01T06:11:01;5.90;4.50
48328;DHT22;34136;51.022;7.082;2023-02-01T06:13:48;5.80;4.40
48328;DHT22;34136;51.022;7.082;2023-02-01T06:16:34;5.80;4.20
48328;DHT22;34136;51.022;7.082;2023-02-01T06:19:21;5.80;4.10
48328;DHT22;34136;51.022;7.082;2023-02-01T06:22:07;5.70;4.40
48328;DHT22;34136;51.022;7.082;2023-02-01T06:24:54;5.80;4.40
48328;DHT22;34136;51.022;7.082;2023-02-01T06:27:40;5.80;4.20
48328;DHT22;34136;51.022;7.082;2023-02-01T06:30:27;5.70;4.40
48328;DHT22;34136;51.022;7.082;2023-02-01T06:33:14;5.70;4.50
48328;DHT22;34136;51.022;7.082;2023-02-01T06:36:03;5.70;4.50
48328;DHT22;34136;51.022;7.082;2023-02-01T06:38:49;5.70;4.80
48328;DHT22;34136;51.022;7.082;2023-02-01T06:41:36;5.70;4.40
48328;DHT22;34136;51.022;7.082;2023-02-01T06:44:22;5.80;4.40
48328;DHT22;34136;51.022;7.082;2023-02-01T06:47:08;5.70;4.10
48328;DHT22;34136;51.022;7.082;2023-02-01T06:49:54;5.80;4.40
48328;DHT22;34136;51.022;7.082;2023-02-01T06:52:41;5.70;4.00
48328;DHT22;34136;51.022;7.082;2023-02-01T06:55:27;5.80;4.40
48328;DHT22;34136;51.022;7.082;2023-02-01T06:58:13;5.70;4.50
48328;DHT22;34136;51.022;7.082;2023-02-01T07:01:07;5.70;4.90
48328;DHT22;34136;51.022;7.082;2023-02-01T07:03:57;5.70;4.50
48328;DHT22;34136;51.022;7.082;2023-02-01T07:06:45;5.70;4.90
48328;DHT22;34136;51.022;7.082;2023-02-01T07:09:32;5.70;4.80
48328;DHT22;34136;51.022;7.082;2023-02-01T07:12:19;5.70;4.80
48328;DHT22;34136;51.022;7.082;2023-02-01T07:15:05;5.70;4.50
48328;DHT22;34136;51.022;7.082;2023-02-01T07:17:54;5.70;4.70
48328;DHT22;34136;51.022;7.082;2023-02-01T07:20:41;5.70;5.30
48328;DHT22;34136;51.022;7.082;2023-02-01T07:23:28;5.70;5.00
48328;DHT22;34136;51.022;7.082;2023-02-01T07:26:14;5.70;4.80
48328;DHT22;34136;51.022;7.082;2023-02-01T07:29:01;5.70;4.60
48328;DHT22;34136;51.022;7.082;2023-02-01T07:31:47;5.80;4.30
48328;DHT22;34136;51.022;7.082;2023-02-01T07:34:33;5.70;4.60
48328;DHT22;34136;51.022;7.082;2023-02-01T07:37:19;5.80;4.80
48328;DHT22;34136;51.022;7.082;2023-02-01T07:40:05;5.80;4.90
48328;DHT22;34136;51.022;7.082;2023-02-01T07:42:51;5.80;4.80
48328;DHT22;34136;51.022;7.082;2023-02-01T07:45:37;5.80;5.20
48328;DHT22;34136;51.022;7.082;2023-02-01T07:48:30;5.80;5.00
48328;DHT22;34136;51.022;7.082;2023-02-01T07:51:16;5.80;4.90
48328;DHT22;34136;51.022;7.082;2023-02-01T07:54:03;5.80;5.10
48328;DHT22;34136;51.022;7.082;2023-02-01T07:56:49;5.80;4.80
48328;DHT22;34136;51.022;7.082;2023-02-01T07:59:35;5.90;5.30
48328;DHT22;34136;51.022;7.082;2023-02-01T08:02:21;5.80;4.90
48328;DHT22;34136;51.022;7.082;2023-02-01T08:05:07;5.80;4.90
48328;DHT22;34136;51.022;7.082;2023-02-01T08:07:53;5.80;5.50
48328;DHT22;34136;51.022;7.082;2023-02-01T08:10:40;5.90;5.30
48328;DHT22;34136;51.022;7.082;2023-02-01T08:13:26;5.90;5.10
48328;DHT22;34136;51.022;7.082;2023-02-01T08:16:14;5.90;5.20
48328;DHT22;34136;51.022;7.082;2023-02-01T08:19:00;5.90;5.30
48328;DHT22;34136;51.022;7.082;2023-02-01T08:21:49;5.90;5.30
48328;DHT22;34136;51.022;7.082;2023-02-01T08:24:36;5.90;5.40
48328;DHT22;34136;51.022;7.082;2023-02-01T08:27:22;5.90;5.20
48328;DHT22;34136;51.022;7.082;2023-02-01T08:30:09;5.90;5.10
48328;DHT22;34136;51.022;7.082;2023-02-01T08:32:57;5.90;5.30
48328;DHT22;34136;51.022;7.082;2023-02-01T08:35:43;5.90;5.20
48328;DHT22;34136;51.022;7.082;2023-02-01T08:38:29;5.90;5.40
48328;DHT22;34136;51.022;7.082;2023-02-01T08:41:19;5.80;5.00
48328;DHT22;34136;51.022;7.082;2023-02-01T08:44:05;5.90;5.30
48328;DHT22;34136;51.022;7.082;2023-02-01T08:46:52;5.90;5.10
48328;DHT22;34136;51.022;7.082;2023-02-01T08:49:44;5.90;5.30
48328;DHT22;34136;51.022;7.082;2023-02-01T08:52:31;5.90;4.90
48328;DHT22;34136;51.022;7.082;2023-02-01T08:55:17;5.80;4.80
48328;DHT22;34136;51.022;7.082;2023-02-01T08:58:05;5.80;5.20
48328;DHT22;34136;51.022;7.082;2023-02-01T09:00:52;5.90;5.40
48328;DHT22;34136;51.022;7.082;2023-02-01T09:03:45;5.90;4.40
48328;DHT22;34136;51.022;7.082;2023-02-01T09:06:32;5.90;5.20
48328;DHT22;34136;51.022;7.082;2023-02-01T09:09:18;6.00;4.70
48328;DHT22;34136;51.022;7.082;2023-02-01T09:12:05;6.00;4.60
48328;DHT22;34136;51.022;7.082;2023-02-01T09:14:51;6.00;4.20
48328;DHT22;34136;51.022;7.082;2023-02-01T09:17:38;6.00;3.70
48328;DHT22;34136;51.022;7.082;2023-02-01T09:20:24;6.00;4.30
48328;DHT22;34136;51.022;7.082;2023-02-01T09:23:11;6.00;4.20
48328;DHT22;34136;51.022;7.082;2023-02-01T09:26:04;6.10;4.20
48328;DHT22;34136;51.022;7.082;2023-02-01T09:29:09;6.00;4.00
48328;DHT22;34136;51.022;7.082;2023-02-01T09:31:58;6.10;4.20
48328;DHT22;34136;51.022;7.082;2023-02-01T09:35:03;6.20;3.70
48328;DHT22;34136;51.022;7.082;2023-02-01T09:37:49;6.10;3.60
48328;DHT22;34136;51.022;7.082;2023-02-01T09:40:46;6.10;3.70
48328;DHT22;34136;51.022;7.082;2023-02-01T09:43:56;6.10;3.90
48328;DHT22;34136;51.022;7.082;2023-02-01T09:46:45;6.20;4.00
48328;DHT22;34136;51.022;7.082;2023-02-01T10:01:09;6.30;3.50
48328;DHT22;34136;51.022;7.082;2023-02-01T10:21:58;6.40;2.20
48328;DHT22;34136;51.022;7.082;2023-02-01T10:24:56;6.40;1.80
48328;DHT22;34136;51.022;7.082;2023-02-01T10:27:45;6.50;1.60
48328;DHT22;34136;51.022;7.082;2023-02-01T10:30:47;6.50;1.20
48328;DHT22;34136;51.022;7.082;2023-02-01T10:33:41;6.60;1.10
48328;DHT22;34136;51.022;7.082;2023-02-01T10:36:36;6.60;1.20
48328;DHT22;34136;51.022;7.082;2023-02-01T10:40:29;6.70;1.00
48328;DHT22;34136;51.022;7.082;2023-02-01T10:43:01;6.90;1.00
48328;DHT22;34136;51.022;7.082;2023-02-01T10:45:47;7.00;1.00
48328;DHT22;34136;51.022;7.082;2023-02-01T10:48:34;7.20;1.00
48328;DHT22;34136;51.022;7.082;2023-02-01T10:51:26;7.30;1.00
48328;DHT22;34136;51.022;7.082;2023-02-01T10:54:19;7.30;1.00
48328;DHT22;34136;51.022;7.082;2023-02-01T10:57:08;7.50;1.00
48328;DHT22;34136;51.022;7.082;2023-02-01T10:59:55;7.50;1.00
48328;DHT22;34136;51.022;7.082;2023-02-01T11:02:42;7.50;1.00
48328;DHT22;34136;51.022;7.082;2023-02-01T11:05:43;7.50;1.00
48328;DHT22;34136;51.022;7.082;2023-02-01T11:08:30;7.50;1.00
48328;DHT22;34136;51.022;7.082;2023-02-01T11:11:17;7.30;1.00
48328;DHT22;34136;51.022;7.082;2023-02-01T11:14:15;7.30;1.00
48328;DHT22;34136;51.022;7.082;2023-02-01T11:20:01;7.20;1.00
48328;DHT22;34136;51.022;7.082;2023-02-01T11:22:52;7.20;1.00
48328;DHT22;34136;51.022;7.082;2023-02-01T11:26:30;7.20;1.00
48328;DHT22;34136;51.022;7.082;2023-02-01T11:28:58;7.20;1.00
48328;DHT22;34136;51.022;7.082;2023-02-01T11:31:45;7.30;1.00
48328;DHT22;34136;51.022;7.082;2023-02-01T11:34:42;7.20;1.00
48328;DHT22;34136;51.022;7.082;2023-02-01T11:37:36;7.30;1.00
48328;DHT22;34136;51.022;7.082;2023-02-01T11:40:29;7.20;1.00
48328;DHT22;34136;51.022;7.082;2023-02-01T11:43:28;7.20;1.00
48328;DHT22;34136;51.022;7.082;2023-02-01T11:46:19;7.20;1.00
48328;DHT22;34136;51.022;7.082;2023-02-01T12:08:04;7.30;1.00
48328;DHT22;34136;51.022;7.082;2023-02-01T12:14:30;7.40;1.00
48328;DHT22;34136;51.022;7.082;2023-02-01T12:21:06;7.40;1.00
48328;DHT22;34136;51.022;7.082;2023-02-01T12:24:02;7.40;1.00
48328;DHT22;34136;51.022;7.082;2023-02-01T12:32:43;7.40;1.00
48328;DHT22;34136;51.022;7.082;2023-02-01T12:44:54;7.50;1.00
48328;DHT22;34136;51.022;7.082;2023-02-01T12:47:46;7.50;1.00
48328;DHT22;34136;51.022;7.082;2023-02-01T12:50:43;7.50;1.00
48328;DHT22;34136;51.022;7.082;2023-02-01T12:56:57;7.60;1.00
48328;DHT22;34136;51.022;7.082;2023-02-01T13:00:00;7.60;1.00
48328;DHT22;34136;51.022;7.082;2023-02-01T13:03:01;7.50;1.00
48328;DHT22;34136;51.022;7.082;2023-02-01T13:06:13;7.50;1.00
48328;DHT22;34136;51.022;7.082;2023-02-01T13:11:54;7.60;1.00
48328;DHT22;34136;51.022;7.082;2023-02-01T13:14:52;7.50;1.00
48328;DHT22;34136;51.022;7.082;2023-02-01T13:18:02;7.40;1.00
48328;DHT22;34136;51.022;7.082;2023-02-01T13:21:03;7.40;1.00
48328;DHT22;34136;51.022;7.082;2023-02-01T13:23:50;7.40;1.00
48328;DHT22;34136;51.022;7.082;2023-02-01T13:26:38;7.40;1.00
48328;DHT22;34136;51.022;7.082;2023-02-01T13:29:26;7.50;1.00
48328;DHT22;34136;51.022;7.082;2023-02-01T13:35:51;7.50;1.00
48328;DHT22;34136;51.022;7.082;2023-02-01T13:42:21;7.60;1.00
48328;DHT22;34136;51.022;7.082;2023-02-01T13:45:22;7.60;1.00
48328;DHT22;34136;51.022;7.082;2023-02-01T13:48:19;7.60;1.00
48328;DHT22;34136;51.022;7.082;2023-02-01T13:51:09;7.60;1.00
48328;DHT22;34136;51.022;7.082;2023-02-01T13:53:57;7.60;1.00
48328;DHT22;34136;51.022;7.082;2023-02-01T13:56:44;7.60;1.00
48328;DHT22;34136;51.022;7.082;2023-02-01T14:08:41;7.70;1.00
48328;DHT22;34136;51.022;7.082;2023-02-01T14:11:33;7.70;1.00
48328;DHT22;34136;51.022;7.082;2023-02-01T14:14:37;7.70;1.00
48328;DHT22;34136;51.022;7.082;2023-02-01T14:17:29;7.70;1.00
48328;DHT22;34136;51.022;7.082;2023-02-01T14:20:42;7.80;1.00
48328;DHT22;34136;51.022;7.082;2023-02-01T14:23:30;7.70;1.00
48328;DHT22;34136;51.022;7.082;2023-02-01T14:26:25;7.70;1.00
48328;DHT22;34136;51.022;7.082;2023-02-01T14:32:21;7.80;1.00
48328;DHT22;34136;51.022;7.082;2023-02-01T14:35:18;7.80;1.00
48328;DHT22;34136;51.022;7.082;2023-02-01T14:38:09;7.90;1.00
48328;DHT22;34136;51.022;7.082;2023-02-01T14:40:56;7.90;1.00
48328;DHT22;34136;51.022;7.082;2023-02-01T14:53:32;7.90;1.00
48328;DHT22;34136;51.022;7.082;2023-02-01T14:56:38;7.90;1.00
48328;DHT22;34136;51.022;7.082;2023-02-01T14:59:25;7.90;1.00
48328;DHT22;34136;51.022;7.082;2023-02-01T15:02:25;7.90;1.00
48328;DHT22;34136;51.022;7.082;2023-02-01T15:05:39;7.90;1.00
48328;DHT22;34136;51.022;7.082;2023-02-01T15:08:29;8.00;1.00
48328;DHT22;34136;51.022;7.082;2023-02-01T15:11:16;7.90;1.00
48328;DHT22;34136;51.022;7.082;2023-02-01T15:14:13;8.00;1.00
48328;DHT22;34136;51.022;7.082;2023-02-01T15:17:00;8.00;1.00
48328;DHT22;34136;51.022;7.082;2023-02-01T15:20:01;8.00;1.00
48328;DHT22;34136;51.022;7.082;2023-02-01T15:23:00;8.00;1.00
48328;DHT22;34136;51.022;7.082;2023-02-01T15:25:52;8.00;1.00
48328;DHT22;34136;51.022;7.082;2023-02-01T15:28:38;8.00;1.00
48328;DHT22;34136;51.022;7.082;2023-02-01T15:34:19;8.00;1.00
48328;DHT22;34136;51.022;7.082;2023-02-01T15:37:06;8.00;1.00
48328;DHT22;34136;51.022;7.082;2023-02-01T15:43:20;8.00;1.00
48328;DHT22;34136;51.022;7.082;2023-02-01T15:46:09;8.00;1.00
48328;DHT22;34136;51.022;7.082;2023-02-01T15:49:31;7.90;1.00
48328;DHT22;34136;51.022;7.082;2023-02-01T15:55:23;7.90;1.00
48328;DHT22;34136;51.022;7.082;2023-02-01T15:58:23;7.90;1.00
48328;DHT22;34136;51.022;7.082;2023-02-01T16:01:11;8.00;1.00
48328;DHT22;34136;51.022;7.082;2023-02-01T16:04:10;8.00;1.00
48328;DHT22;34136;51.022;7.082;2023-02-01T16:07:03;8.00;1.00
48328;DHT22;34136;51.022;7.082;2023-02-01T16:09:54;8.00;1.00
48328;DHT22;34136;51.022;7.082;2023-02-01T16:15:29;8.00;1.00
48328;DHT22;34136;51.022;7.082;2023-02-01T16:18:16;8.00;1.00
48328;DHT22;34136;51.022;7.082;2023-02-01T16:21:02;8.00;1.00
48328;DHT22;34136;51.022;7.082;2023-02-01T16:23:52;8.00;1.00
48328;DHT22;34136;51.022;7.082;2023-02-01T16:26:38;8.00;1.00
48328;DHT22;34136;51.022;7.082;2023-02-01T16:29:25;8.00;1.00
48328;DHT22;34136;51.022;7.082;2023-02-01T16:32:18;8.00;1.00
48328;DHT22;34136;51.022;7.082;2023-02-01T16:35:26;8.10;1.00
48328;DHT22;34136;51.022;7.082;2023-02-01T16:38:14;8.00;1.00
48328;DHT22;34136;51.022;7.082;2023-02-01T16:41:01;8.00;1.00
48328;DHT22;34136;51.022;7.082;2023-02-01T16:43:53;8.00;1.00
48328;DHT22;34136;51.022;7.082;2023-02-01T16:46:42;8.00;1.00
48328;DHT22;34136;51.022;7.082;2023-02-01T16:49:28;8.00;1.00
48328;DHT22;34136;51.022;7.082;2023-02-01T16:52:18;8.00;1.00
48328;DHT22;34136;51.022;7.082;2023-02-01T16:55:12;8.00;1.00
48328;DHT22;34136;51.022;7.082;2023-02-01T16:57:58;8.00;1.00
48328;DHT22;34136;51.022;7.082;2023-02-01T17:00:46;8.00;1.00
48328;DHT22;34136;51.022;7.082;2023-02-01T17:03:32;7.90;1.00
48328;DHT22;34136;51.022;7.082;2023-02-01T17:06:21;7.90;1.00
48328;DHT22;34136;51.022;7.082;2023-02-01T17:09:09;7.90;1.00
48328;DHT22;34136;51.022;7.082;2023-02-01T17:11:55;7.90;1.00
48328;DHT22;34136;51.022;7.082;2023-02-01T17:14:42;7.90;1.00
48328;DHT22;34136;51.022;7.082;2023-02-01T17:17:36;7.80;1.00
48328;DHT22;34136;51.022;7.082;2023-02-01T17:20:24;7.80;1.00
48328;DHT22;34136;51.022;7.082;2023-02-01T17:23:12;7.80;1.00
48328;DHT22;34136;51.022;7.082;2023-02-01T17:25:58;7.80;1.00
48328;DHT22;34136;51.022;7.082;2023-02-01T17:28:45;7.80;1.00
48328;DHT22;34136;51.022;7.082;2023-02-01T17:31:35;7.80;1.00
48328;DHT22;34136;51.022;7.082;2023-02-01T17:34:22;7.80;1.00
48328;DHT22;34136;51.022;7.082;2023-02-01T17:37:36;7.80;1.40
48328;DHT22;34136;51.022;7.082;2023-02-01T17:40:23;7.90;1.00
48328;DHT22;34136;51.022;7.082;2023-02-01T17:43:13;7.80;1.00
48328;DHT22;34136;51.022;7.082;2023-02-01T17:46:03;7.80;1.00
48328;DHT22;34136;51.022;7.082;2023-02-01T17:48:50;7.80;1.00
48328;DHT22;34136;51.022;7.082;2023-02-01T17:51:37;7.80;1.10
48328;DHT22;34136;51.022;7.082;2023-02-01T17:54:23;7.80;1.00
48328;DHT22;34136;51.022;7.082;2023-02-01T17:57:11;7.80;1.00
48328;DHT22;34136;51.022;7.082;2023-02-01T17:59:58;7.80;1.30
48328;DHT22;34136;51.022;7.082;2023-02-01T18:02:44;7.80;1.20
48328;DHT22;34136;51.022;7.082;2023-02-01T18:05:39;7.80;1.00
48328;DHT22;34136;51.022;7.082;2023-02-01T18:08:29;7.80;1.00
48328;DHT22;34136;51.022;7.082;2023-02-01T18:11:18;7.80;1.10
48328;DHT22;34136;51.022;7.082;2023-02-01T18:14:08;7.80;1.30
48328;DHT22;34136;51.022;7.082;2023-02-01T18:16:55;7.80;1.00
48328;DHT22;34136;51.022;7.082;2023-02-01T18:19:42;7.80;1.30
48328;DHT22;34136;51.022;7.082;2023-02-01T18:22:28;7.70;2.00
48328;DHT22;34136;51.022;7.082;2023-02-01T18:25:25;7.80;1.30
48328;DHT22;34136;51.022;7.082;2023-02-01T18:28:18;7.70;1.40
48328;DHT22;34136;51.022;7.082;2023-02-01T18:31:05;7.70;1.40
48328;DHT22;34136;51.022;7.082;2023-02-01T18:33:53;7.70;1.60
48328;DHT22;34136;51.022;7.082;2023-02-01T18:36:39;7.70;2.20
48328;DHT22;34136;51.022;7.082;2023-02-01T18:39:26;7.70;1.80
48328;DHT22;34136;51.022;7.082;2023-02-01T18:42:12;7.70;1.90
48328;DHT22;34136;51.022;7.082;2023-02-01T18:44:58;7.70;1.90
48328;DHT22;34136;51.022;7.082;2023-02-01T18:47:45;7.70;2.10
48328;DHT22;34136;51.022;7.082;2023-02-01T18:50:34;7.70;2.20
48328;DHT22;34136;51.022;7.082;2023-02-01T18:53:20;7.70;2.20
48328;DHT22;34136;51.022;7.082;2023-02-01T18:56:12;7.70;2.10
48328;DHT22;34136;51.022;7.082;2023-02-01T18:58:59;7.80;2.30
48328;DHT22;34136;51.022;7.082;2023-02-01T19:01:45;7.80;1.90
48328;DHT22;34136;51.022;7.082;2023-02-01T19:04:32;7.80;1.80
48328;DHT22;34136;51.022;7.082;2023-02-01T19:07:18;7.70;1.50
48328;DHT22;34136;51.022;7.082;2023-02-01T19:10:06;7.80;1.30
48328;DHT22;34136;51.022;7.082;2023-02-01T19:12:53;7.70;1.30
48328;DHT22;34136;51.022;7.082;2023-02-01T19:15:40;7.70;1.10
48328;DHT22;34136;51.022;7.082;2023-02-01T19:18:27;7.80;1.00
48328;DHT22;34136;51.022;7.082;2023-02-01T19:21:13;7.70;1.00
48328;DHT22;34136;51.022;7.082;2023-02-01T19:23:59;7.70;1.00
48328;DHT22;34136;51.022;7.082;2023-02-01T19:26:45;7.70;1.20
48328;DHT22;34136;51.022;7.082;2023-02-01T19:29:31;7.70;1.00
48328;DHT22;34136;51.022;7.082;2023-02-01T19:32:17;7.80;1.40
48328;DHT22;34136;51.022;7.082;2023-02-01T19:35:05;7.80;1.00
48328;DHT22;34136;51.022;7.082;2023-02-01T19:37:55;7.80;1.00
48328;DHT22;34136;51.022;7.082;2023-02-01T19:40:41;7.80;1.00
48328;DHT22;34136;51.022;7.082;2023-02-01T19:43:27;7.80;1.00
48328;DHT22;34136;51.022;7.082;2023-02-01T19:46:14;7.80;1.00
48328;DHT22;34136;51.022;7.082;2023-02-01T19:49:00;7.80;1.00
48328;DHT22;34136;51.022;7.082;2023-02-01T19:51:46;7.80;1.00
48328;DHT22;34136;51.022;7.082;2023-02-01T19:54:33;7.90;1.00
48328;DHT22;34136;51.022;7.082;2023-02-01T19:57:19;7.80;1.00
48328;DHT22;34136;51.022;7.082;2023-02-01T20:00:06;7.80;1.00
48328;DHT22;34136;51.022;7.082;2023-02-01T21:58:26;8.00;3.50
48328;DHT22;34136;51.022;7.082;2023-02-01T22:01:13;8.00;3.50
48328;DHT22;34136;51.022;7.082;2023-02-01T22:03:58;8.00;3.50
48328;DHT22;34136;51.022;7.082;2023-02-01T22:06:50;8.00;3.70
48328;DHT22;34136;51.022;7.082;2023-02-01T22:09:37;8.00;3.80
48328;DHT22;34136;51.022;7.082;2023-02-01T22:12:23;8.00;3.80
48328;DHT22;34136;51.022;7.082;2023-02-01T22:15:09;8.00;3.80
48328;DHT22;34136;51.022;7.082;2023-02-01T22:17:56;8.00;4.00
48328;DHT22;34136;51.022;7.082;2023-02-01T22:20:42;8.10;3.90
48328;DHT22;34136;51.022;7.082;2023-02-01T22:23:29;8.10;3.90
48328;DHT22;34136;51.022;7.082;2023-02-01T22:26:15;8.10;4.00
48328;DHT22;34136;51.022;7.082;2023-02-01T22:29:02;8.20;3.90
48328;DHT22;34136;51.022;7.082;2023-02-01T22:31:48;8.10;4.10
48328;DHT22;34136;51.022;7.082;2023-02-01T22:34:35;8.10;4.40
48328;DHT22;34136;51.022;7.082;2023-02-01T22:37:21;8.10;4.80